Time;durP1;ratioP1;P1;durP2;ratioP2;P2;SDS_P1;SDS_P2;PMS_P1;PMS_P2;Temp;Humidity;BMP_temperature;BMP_pressure;BME280_temperature;BME280_humidity;BME280_pressure;Samples;Min_cycle;Max_cycle;Signal;HPM_P1;HPM_P2
2023/09/08 00:04:00;;;;;;;11.15;10.05;;;;;18.80;101133.00;;;;10870831;23;20251;-82
2023/09/08 00:09:03;;;;;;;11.10;10.07;;;;;18.80;101129.00;;;;10223800;29;20226;-80
2023/09/08 00:14:07;;;;;;;10.90;9.80;;;;;18.80;101138.00;;;;11346262;23;20378;-87
2023/09/08 00:30:20;;;;;;;12.90;11.55;;;;;18.60;101134.00;;;;11931879;23;20456;-81
2023/09/08 00:35:21;;;;;;;12.05;10.95;;;;;18.50;101133.00;;;;11247001;23;20221;-77
2023/09/08 00:40:23;;;;;;;11.48;10.23;;;;;18.50;101129.00;;;;10184043;29;20206;-77
2023/09/08 00:45:29;;;;;;;12.77;10.73;;;;;18.40;101133.00;;;;10211380;28;20238;-78
2023/09/08 00:50:31;;;;;;;15.20;11.80;;;;;18.40;101133.00;;;;10216195;29;20705;-79
2023/09/08 00:55:34;;;;;;;14.10;12.30;;;;;18.40;101133.00;;;;10188529;29;20211;-78
2023/09/08 01:00:35;;;;;;;12.70;11.27;;;;;18.30;101134.00;;;;10196193;28;20241;-83
2023/09/08 01:05:37;;;;;;;12.65;11.35;;;;;18.20;101138.00;;;;10203784;28;20214;-83
2023/09/08 01:10:41;;;;;;;13.40;10.95;;;;;18.20;101140.00;;;;10194144;28;20262;-83
2023/09/08 01:15:42;;;;;;;12.70;11.45;;;;;18.10;101142.00;;;;10191412;28;20313;-83
2023/09/08 01:20:57;;;;;;;14.77;12.30;;;;;18.10;101141.00;;;;10208280;29;20214;-84
2023/09/08 01:26:07;;;;;;;13.13;11.75;;;;;18.10;101140.00;;;;10165434;28;20700;-83
2023/09/08 01:31:09;;;;;;;15.25;13.65;;;;;18.00;101129.00;;;;10191948;29;20707;-84
2023/09/08 01:36:11;;;;;;;15.52;13.93;;;;;18.00;101128.00;;;;10174626;28;20714;-83
2023/09/08 01:41:12;;;;;;;14.65;13.25;;;;;17.90;101134.00;;;;10170365;29;20580;-84
2023/09/08 01:46:13;;;;;;;18.27;15.23;;;;;17.90;101129.00;;;;10183396;29;20242;-83
2023/09/08 01:51:15;;;;;;;17.50;15.23;;;;;17.90;101125.00;;;;10157849;28;20231;-84
2023/09/08 01:56:16;;;;;;;17.23;14.52;;;;;17.90;101119.00;;;;10155444;29;20242;-84
2023/09/08 02:01:18;;;;;;;17.83;14.40;;;;;17.80;101119.00;;;;10180046;29;20222;-82
2023/09/08 02:06:19;;;;;;;14.35;13.02;;;;;17.80;101122.00;;;;10145500;29;20218;-83
2023/09/08 02:11:20;;;;;;;14.18;12.43;;;;;17.70;101120.00;;;;10172141;29;20304;-83
2023/09/08 02:16:23;;;;;;;22.33;14.75;;;;;17.70;101110.00;;;;10171538;29;20481;-80
2023/09/08 02:21:25;;;;;;;15.95;14.40;;;;;17.70;101122.00;;;;10179269;29;20226;-81
2023/09/08 02:26:27;;;;;;;14.65;13.25;;;;;17.70;101113.00;;;;10158539;29;20214;-81
2023/09/08 02:31:28;;;;;;;14.13;12.82;;;;;17.60;101118.00;;;;10183804;29;20239;-81
2023/09/08 02:36:31;;;;;;;13.35;11.95;;;;;17.60;101119.00;;;;10161303;29;20214;-81
2023/09/08 02:41:32;;;;;;;17.05;12.70;;;;;17.50;101111.00;;;;10171182;29;20225;-80
2023/09/08 02:46:35;;;;;;;13.98;12.57;;;;;17.50;101112.00;;;;10171922;29;20246;-81
2023/09/08 02:51:37;;;;;;;15.00;13.60;;;;;17.40;101109.00;;;;10151629;29;20747;-81
2023/09/08 02:56:38;;;;;;;16.05;14.23;;;;;17.40;101111.00;;;;10163092;29;20388;-81
2023/09/08 03:01:40;;;;;;;17.77;14.82;;;;;17.40;101115.00;;;;10182671;29;20292;-82
2023/09/08 03:06:41;;;;;;;17.58;14.77;;;;;17.30;101111.00;;;;10155060;29;20211;-80
2023/09/08 03:11:42;;;;;;;18.60;14.50;;;;;17.30;101109.00;;;;10171270;29;20248;-81
2023/09/08 03:16:44;;;;;;;18.63;14.15;;;;;17.30;101092.00;;;;10144098;29;20305;-80
2023/09/08 03:21:45;;;;;;;18.65;13.75;;;;;17.20;101100.00;;;;10162220;29;21065;-81
2023/09/08 03:26:47;;;;;;;15.50;13.93;;;;;17.20;101092.00;;;;10145963;29;20733;-83
2023/09/08 03:31:48;;;;;;;17.30;14.80;;;;;17.10;101088.00;;;;10156534;29;20213;-82
2023/09/08 03:36:53;;;;;;;18.77;14.48;;;;;17.00;101096.00;;;;10147353;29;20642;-82
2023/09/08 03:41:55;;;;;;;15.65;14.10;;;;;17.00;101090.00;;;;10165767;29;20202;-84
2023/09/08 03:46:57;;;;;;;15.75;13.20;;;;;17.00;101088.00;;;;10180695;29;20321;-83
2023/09/08 03:51:58;;;;;;;15.73;14.10;;;;;16.90;101088.00;;;;10151786;29;20221;-84
2023/09/08 03:56:59;;;;;;;15.52;13.75;;;;;16.90;101076.00;;;;10149558;29;20751;-82
2023/09/08 04:02:01;;;;;;;15.70;12.52;;;;;16.80;101081.00;;;;10139999;29;20553;-84
2023/09/08 04:07:03;;;;;;;14.65;13.27;;;;;16.80;101084.00;;;;10153590;29;20293;-82
2023/09/08 04:12:05;;;;;;;16.15;13.50;;;;;16.80;101077.00;;;;10156540;29;20249;-83
2023/09/08 04:17:07;;;;;;;14.63;13.13;;;;;16.80;101081.00;;;;10171492;29;20370;-83
2023/09/08 04:22:09;;;;;;;15.57;13.75;;;;;16.70;101089.00;;;;10155861;29;20457;-84
2023/09/08 04:27:11;;;;;;;14.98;13.00;;;;;16.70;101082.00;;;;10167592;29;20218;-84
2023/09/08 04:32:15;;;;;;;14.55;12.95;;;;;16.60;101084.00;;;;10143161;29;20218;-84
2023/09/08 04:37:17;;;;;;;13.77;12.30;;;;;16.60;101080.00;;;;10146414;29;20254;-79
2023/09/08 04:42:18;;;;;;;15.98;13.73;;;;;16.50;101081.00;;;;10173783;29;20237;-80
2023/09/08 04:47:20;;;;;;;17.67;13.13;;;;;16.50;101087.00;;;;10160258;29;20309;-79
2023/09/08 04:52:22;;;;;;;15.77;14.07;;;;;16.50;101084.00;;;;10122269;29;20297;-80
2023/09/08 04:57:23;;;;;;;17.15;14.70;;;;;16.60;101088.00;;;;10158351;29;20222;-79
2023/09/08 05:02:29;;;;;;;16.38;14.60;;;;;16.60;101086.00;;;;10129440;29;20404;-80
2023/09/08 05:07:31;;;;;;;16.95;14.60;;;;;16.60;101090.00;;;;10156139;29;20861;-79
2023/09/08 05:12:34;;;;;;;16.98;15.20;;;;;16.60;101092.00;;;;10151872;29;20214;-79
2023/09/08 05:17:35;;;;;;;15.48;13.43;;;;;16.60;101086.00;;;;10111248;29;20222;-80
2023/09/08 05:22:37;;;;;;;22.30;15.05;;;;;16.60;101096.00;;;;10149034;29;20648;-80
2023/09/08 05:27:40;;;;;;;17.90;14.25;;;;;16.70;101089.00;;;;10155877;29;20219;-80
2023/09/08 05:32:42;;;;;;;18.60;15.55;;;;;16.80;101103.00;;;;10125952;29;20290;-80
2023/09/08 05:37:44;;;;;;;16.83;15.10;;;;;17.00;101101.00;;;;10148310;29;20705;-80
2023/09/08 05:42:45;;;;;;;19.45;15.90;;;;;17.10;101107.00;;;;10158901;29;20669;-81
2023/09/08 05:47:49;;;;;;;19.48;16.88;;;;;17.30;101110.00;;;;10160674;29;20823;-78
2023/09/08 05:52:51;;;;;;;16.42;14.48;;;;;17.50;101116.00;;;;10119637;29;20562;-79
2023/09/08 05:57:53;;;;;;;18.80;15.20;;;;;17.70;101109.00;;;;10143331;29;20262;-77
2023/09/08 06:02:55;;;;;;;16.98;14.95;;;;;18.00;101119.00;;;;10154009;29;20236;-77
2023/09/08 06:07:57;;;;;;;18.83;15.07;;;;;18.20;101116.00;;;;10144164;29;20710;-78
2023/09/08 06:13:12;;;;;;;17.38;14.68;;;;;18.50;101118.00;;;;10137270;29;20215;-77
2023/09/08 06:18:15;;;;;;;16.75;14.98;;;;;18.90;101120.00;;;;10149583;29;20227;-79
2023/09/08 06:23:19;;;;;;;16.38;14.63;;;;;19.20;101123.00;;;;10157276;29;20222;-77
2023/09/08 06:28:22;;;;;;;15.90;14.23;;;;;19.70;101131.00;;;;10162184;29;20273;-78
2023/09/08 06:33:23;;;;;;;14.98;13.38;;;;;20.30;101124.00;;;;10181213;29;20314;-79
2023/09/08 06:38:25;;;;;;;13.95;12.23;;;;;20.90;101125.00;;;;10161946;29;20262;-78
2023/09/08 06:43:26;;;;;;;11.93;10.63;;;;;21.30;101129.00;;;;10151944;29;20237;-78
2023/09/08 06:48:39;;;;;;;14.07;10.88;;;;;21.70;101127.00;;;;10166506;29;20672;-80
2023/09/08 06:53:43;;;;;;;13.18;11.05;;;;;22.10;101144.00;;;;10172213;29;20269;-79
2023/09/08 06:58:45;;;;;;;13.60;9.73;;;;;22.50;101136.00;;;;10163895;29;20226;-75
2023/09/08 07:03:46;;;;;;;13.40;9.93;;;;;22.70;101145.00;;;;10201279;29;20235;-77
2023/09/08 07:08:50;;;;;;;12.30;10.10;;;;;22.70;101148.00;;;;10168138;29;20234;-76
2023/09/08 07:13:52;;;;;;;10.15;7.93;;;;;22.90;101140.00;;;;10159619;29;20211;-77
2023/09/08 07:18:54;;;;;;;14.15;8.68;;;;;23.20;101140.00;;;;10202715;29;20223;-79
2023/09/08 07:23:56;;;;;;;15.18;7.80;;;;;23.30;101153.00;;;;10156954;29;20289;-79
2023/09/08 07:28:58;;;;;;;8.02;6.60;;;;;23.50;101147.00;;;;10173539;29;20210;-76
2023/09/08 07:33:59;;;;;;;8.13;7.32;;;;;23.60;101155.00;;;;10181699;29;20460;-76
2023/09/08 07:39:02;;;;;;;10.45;7.43;;;;;23.80;101154.00;;;;10147432;29;20226;-80
2023/09/08 07:44:04;;;;;;;9.75;7.40;;;;;24.00;101145.00;;;;10176482;29;20211;-75
2023/09/08 07:49:05;;;;;;;11.52;7.25;;;;;24.30;101149.00;;;;10177139;29;20702;-78
2023/09/08 07:54:07;;;;;;;11.05;8.55;;;;;24.50;101156.00;;;;10165732;29;20221;-75
2023/09/08 07:59:08;;;;;;;10.80;7.82;;;;;24.80;101157.00;;;;10199494;29;20689;-75
2023/09/08 08:04:10;;;;;;;10.13;8.05;;;;;25.10;101166.00;;;;10156356;29;20577;-76
2023/09/08 08:09:11;;;;;;;12.30;8.65;;;;;25.40;101150.00;;;;10154866;29;20685;-80
2023/09/08 08:14:13;;;;;;;10.88;7.80;;;;;25.70;101161.00;;;;10131057;29;20783;-81
2023/09/08 08:19:15;;;;;;;12.70;7.80;;;;;26.00;101156.00;;;;10136048;29;20234;-81
2023/09/08 08:24:16;;;;;;;12.70;8.38;;;;;26.40;101154.00;;;;10164980;29;20211;-83
2023/09/08 08:29:17;;;;;;;11.13;7.50;;;;;26.90;101164.00;;;;10168437;29;20238;-80
2023/09/08 08:34:19;;;;;;;14.70;7.47;;;;;27.50;101158.00;;;;10181873;29;20206;-80
2023/09/08 08:39:20;;;;;;;14.90;7.90;;;;;28.10;101160.00;;;;10165460;29;20237;-80
2023/09/08 08:44:22;;;;;;;15.95;8.40;;;;;28.70;101155.00;;;;10200916;29;20596;-81
2023/09/08 08:49:24;;;;;;;13.20;8.02;;;;;29.20;101161.00;;;;10157074;29;20209;-82
2023/09/08 08:54:25;;;;;;;13.68;6.78;;;;;29.50;101161.00;;;;10166359;29;20801;-80
2023/09/08 08:59:27;;;;;;;15.93;7.43;;;;;30.00;101152.00;;;;10184917;29;20265;-80
2023/09/08 09:04:29;;;;;;;12.35;6.97;;;;;30.40;101149.00;;;;10170324;28;20263;-81
2023/09/08 09:09:31;;;;;;;14.07;7.57;;;;;30.70;101160.00;;;;10149752;29;20211;-82
2023/09/08 09:14:34;;;;;;;9.65;7.22;;;;;31.00;101153.00;;;;10183937;29;20218;-81
2023/09/08 09:42:40;;;;;;;10.00;6.82;;;;;32.40;101161.00;;;;12040558;23;20211;-83
2023/09/08 09:59:21;;;;;;;8.55;6.85;;;;;32.90;101163.00;;;;12083530;23;20209;-83
2023/09/08 10:27:20;;;;;;;12.32;6.80;;;;;33.70;101176.00;;;;10893786;23;20321;-81
2023/09/08 10:32:22;;;;;;;11.80;7.00;;;;;34.00;101166.00;;;;10114018;29;20212;-81
2023/09/08 10:37:27;;;;;;;11.77;5.88;;;;;34.20;101171.00;;;;10115559;29;20291;-79
2023/09/08 10:42:29;;;;;;;10.07;5.80;;;;;34.40;101164.00;;;;10111762;29;20234;-80
2023/09/08 10:48:00;;;;;;;11.93;6.85;;;;;34.60;101160.00;;;;10127812;29;20919;-80
2023/09/08 10:53:17;;;;;;;9.85;6.63;;;;;34.80;101164.00;;;;10120333;29;20242;-80
2023/09/08 10:58:40;;;;;;;10.85;5.80;;;;;35.00;101162.00;;;;10112230;29;20266;-80
2023/09/08 11:03:44;;;;;;;8.20;6.32;;;;;35.40;101165.00;;;;10129782;29;20211;-79
2023/09/08 11:08:47;;;;;;;7.15;6.07;;;;;35.50;101163.00;;;;10114880;29;20653;-80
2023/09/08 11:13:48;;;;;;;6.80;5.57;;;;;35.60;101163.00;;;;10128784;29;20211;-80
2023/09/08 11:18:51;;;;;;;7.00;6.05;;;;;35.80;101161.00;;;;10112782;29;20223;-79
2023/09/08 11:23:52;;;;;;;12.38;5.55;;;;;35.80;101157.00;;;;10097881;29;20290;-80
2023/09/08 11:28:54;;;;;;;8.68;5.70;;;;;35.80;101154.00;;;;10128432;29;20262;-80
2023/09/08 11:33:56;;;;;;;9.63;5.18;;;;;35.80;101161.00;;;;10126839;29;20213;-81
2023/09/08 11:38:57;;;;;;;9.10;5.32;;;;;35.90;101161.00;;;;10125771;29;20238;-80
2023/09/08 11:43:58;;;;;;;11.40;5.50;;;;;36.10;101154.00;;;;10126545;29;20755;-80
2023/09/08 11:49:00;;;;;;;8.98;5.38;;;;;36.00;101156.00;;;;10125370;29;20239;-79
2023/09/08 11:54:01;;;;;;;7.90;4.93;;;;;36.20;101158.00;;;;10105530;29;20211;-80
2023/09/08 11:59:03;;;;;;;11.43;5.03;;;;;36.00;101144.00;;;;10126910;29;20206;-79
2023/09/08 12:04:05;;;;;;;9.30;5.30;;;;;35.90;101149.00;;;;10126982;29;20211;-80
2023/09/08 12:09:07;;;;;;;11.38;5.05;;;;;36.00;101135.00;;;;10110395;29;20318;-80
2023/09/08 12:14:14;;;;;;;9.82;4.90;;;;;36.10;101142.00;;;;10126661;29;20218;-79
2023/09/08 12:19:32;;;;;;;9.75;5.22;;;;;35.90;101133.00;;;;10125399;29;20249;-79
2023/09/08 12:24:49;;;;;;;11.85;4.43;;;;;36.10;101139.00;;;;10110374;29;20354;-80
2023/09/08 12:29:55;;;;;;;9.75;3.92;;;;;36.20;101143.00;;;;10126522;29;20640;-80
2023/09/08 12:34:57;;;;;;;12.85;3.40;;;;;36.00;101145.00;;;;10123742;29;20551;-81
2023/09/08 12:40:00;;;;;;;10.68;3.55;;;;;36.00;101139.00;;;;10124906;29;20215;-80
2023/09/08 12:45:02;;;;;;;9.30;3.72;;;;;36.00;101137.00;;;;10117978;29;20203;-86
2023/09/08 12:50:04;;;;;;;10.63;3.45;;;;;36.00;101134.00;;;;10123465;29;20434;-84
2023/09/08 12:55:09;;;;;;;6.50;3.22;;;;;35.90;101128.00;;;;10129365;29;20207;-86
2023/09/08 13:00:11;;;;;;;7.07;3.65;;;;;35.90;101132.00;;;;10129293;29;20215;-86
2023/09/08 13:05:13;;;;;;;6.80;3.15;;;;;35.60;101121.00;;;;10127112;29;20673;-86
2023/09/08 13:10:14;;;;;;;13.05;3.63;;;;;35.30;101120.00;;;;10105875;29;20235;-88
2023/09/08 13:15:16;;;;;;;6.47;3.28;;;;;35.20;101117.00;;;;10126665;29;20211;-87
2023/09/08 13:20:17;;;;;;;6.13;3.42;;;;;34.90;101114.00;;;;10105142;29;20623;-89
2023/09/08 13:25:19;;;;;;;9.20;3.78;;;;;34.60;101104.00;;;;10110302;29;20267;-90
2023/09/08 13:30:23;;;;;;;12.05;3.97;;;;;34.90;101099.00;;;;10125209;29;20706;-88
2023/09/08 13:35:25;;;;;;;12.25;3.72;;;;;34.80;101096.00;;;;10105344;29;20254;-85
2023/09/08 13:40:26;;;;;;;11.93;3.75;;;;;34.10;101090.00;;;;10126487;29;20212;-86
2023/09/08 13:45:28;;;;;;;16.23;4.35;;;;;33.90;101096.00;;;;10110338;29;20263;-88
2023/09/08 13:50:30;;;;;;;14.98;4.00;;;;;34.10;101092.00;;;;10118397;29;20335;-87
2023/09/08 13:55:34;;;;;;;20.20;4.57;;;;;34.00;101080.00;;;;10111038;29;20824;-78
2023/09/08 14:00:39;;;;;;;12.57;4.20;;;;;33.70;101080.00;;;;10099400;29;20299;-79
2023/09/08 14:05:46;;;;;;;12.57;4.63;;;;;33.70;101082.00;;;;10128403;29;20236;-80
2023/09/08 14:10:55;;;;;;;9.23;4.00;;;;;33.90;101077.00;;;;10129379;29;20254;-80
2023/09/08 14:15:59;;;;;;;11.95;4.75;;;;;34.00;101082.00;;;;10094367;29;20836;-79
2023/09/08 14:21:04;;;;;;;19.17;4.78;;;;;34.00;101084.00;;;;10129893;29;20736;-79
2023/09/08 14:26:05;;;;;;;14.52;4.68;;;;;33.40;101088.00;;;;10128744;29;20206;-79
2023/09/08 14:31:06;;;;;;;13.02;4.30;;;;;32.70;101083.00;;;;10114272;29;20258;-80
2023/09/08 14:36:08;;;;;;;23.27;5.82;;;;;32.20;101084.00;;;;10128578;29;20260;-79
2023/09/08 14:41:09;;;;;;;14.15;4.88;;;;;32.10;101084.00;;;;10128678;29;20766;-78
2023/09/08 14:46:12;;;;;;;19.45;5.05;;;;;32.10;101076.00;;;;10113970;29;20219;-79
2023/09/08 14:51:13;;;;;;;16.77;5.35;;;;;31.50;101082.00;;;;10128969;29;20531;-80
2023/09/08 14:56:18;;;;;;;19.02;5.45;;;;;31.30;101081.00;;;;10130370;29;20324;-78
2023/09/08 15:01:19;;;;;;;16.67;4.95;;;;;31.20;101078.00;;;;10088767;29;20212;-78
2023/09/08 15:06:21;;;;;;;15.13;4.45;;;;;31.00;101079.00;;;;10109430;29;20226;-80
2023/09/08 15:11:22;;;;;;;16.17;5.20;;;;;30.90;101078.00;;;;10125212;29;20261;-79
2023/09/08 15:16:23;;;;;;;18.45;5.18;;;;;30.90;101085.00;;;;10097407;29;20234;-80
2023/09/08 15:21:27;;;;;;;15.27;5.32;;;;;30.70;101079.00;;;;10127476;29;20217;-80
2023/09/08 15:26:28;;;;;;;15.95;5.40;;;;;30.60;101077.00;;;;10103817;29;20287;-81
2023/09/08 15:31:30;;;;;;;21.77;5.63;;;;;30.60;101072.00;;;;10106769;29;20659;-80
2023/09/08 15:36:31;;;;;;;27.23;6.55;;;;;30.50;101079.00;;;;10124282;29;20783;-78
2023/09/08 15:41:32;;;;;;;20.75;5.40;;;;;30.30;101071.00;;;;10109905;29;20590;-79
2023/09/08 15:46:34;;;;;;;10.73;4.95;;;;;30.10;101081.00;;;;10125842;29;20311;-79
2023/09/08 15:51:36;;;;;;;20.20;6.07;;;;;30.10;101068.00;;;;10109132;29;20227;-79
2023/09/08 15:56:37;;;;;;;16.15;5.50;;;;;30.10;101067.00;;;;10124629;29;20760;-78
2023/09/08 16:01:39;;;;;;;17.13;6.05;;;;;30.00;101069.00;;;;10124707;29;20215;-79
2023/09/08 16:06:40;;;;;;;14.35;5.13;;;;;29.90;101067.00;;;;10104534;29;20306;-80
2023/09/08 16:11:41;;;;;;;16.08;5.10;;;;;29.80;101065.00;;;;10124490;29;20231;-80
2023/09/08 16:16:43;;;;;;;17.88;5.20;;;;;29.80;101075.00;;;;10109366;29;20222;-80
2023/09/08 16:21:45;;;;;;;15.60;4.57;;;;;29.70;101069.00;;;;10107176;29;20248;-81
2023/09/08 16:26:46;;;;;;;16.20;5.20;;;;;29.60;101072.00;;;;10116522;29;20598;-83
2023/09/08 16:31:47;;;;;;;11.43;5.30;;;;;29.50;101066.00;;;;10104985;29;20266;-85
2023/09/08 16:36:48;;;;;;;14.70;5.60;;;;;29.40;101067.00;;;;10119736;29;20211;-86
2023/09/08 16:41:50;;;;;;;11.85;5.05;;;;;29.30;101072.00;;;;10113457;29;20242;-84
2023/09/08 16:46:51;;;;;;;12.00;5.50;;;;;29.20;101075.00;;;;10083976;29;20278;-83
2023/09/08 16:51:56;;;;;;;13.38;5.68;;;;;29.10;101070.00;;;;10104901;29;20632;-83
2023/09/08 16:56:58;;;;;;;20.13;5.55;;;;;29.00;101069.00;;;;10095730;29;20208;-81
2023/09/08 17:01:59;;;;;;;14.27;5.90;;;;;28.90;101072.00;;;;10097937;29;20295;-84
2023/09/08 17:07:00;;;;;;;15.70;6.13;;;;;28.80;101070.00;;;;10101853;29;20891;-81
2023/09/08 17:12:06;;;;;;;17.08;5.60;;;;;28.60;101075.00;;;;10116677;29;20219;-83
2023/09/08 17:17:08;;;;;;;16.58;5.80;;;;;28.50;101069.00;;;;10077447;29;20212;-83
2023/09/08 17:22:10;;;;;;;15.85;6.13;;;;;28.20;101071.00;;;;10105432;29;20220;-84
2023/09/08 17:27:11;;;;;;;14.63;5.97;;;;;28.00;101081.00;;;;10119113;29;20854;-86
2023/09/08 17:32:12;;;;;;;22.02;6.30;;;;;27.70;101081.00;;;;10117979;29;20230;-82
2023/09/08 17:37:14;;;;;;;18.80;7.07;;;;;27.40;101081.00;;;;10102207;29;20217;-81
2023/09/08 17:42:15;;;;;;;18.08;6.40;;;;;27.10;101085.00;;;;10098024;29;20582;-83
2023/09/08 17:47:16;;;;;;;22.55;6.75;;;;;26.90;101085.00;;;;10080988;29;20579;-82
2023/09/08 17:52:17;;;;;;;16.35;6.22;;;;;26.60;101088.00;;;;10102173;29;20218;-84
2023/09/08 17:57:19;;;;;;;19.17;6.78;;;;;26.30;101087.00;;;;10102254;29;20223;-83
2023/09/08 18:02:20;;;;;;;18.98;6.82;;;;;26.10;101095.00;;;;10112669;29;20243;-84
2023/09/08 18:07:21;;;;;;;20.15;6.60;;;;;25.90;101100.00;;;;10101013;29;20794;-83
2023/09/08 18:12:23;;;;;;;12.82;7.07;;;;;25.70;101107.00;;;;10117086;29;20223;-83
2023/09/08 18:17:24;;;;;;;17.02;7.80;;;;;25.50;101102.00;;;;10080799;29;20307;-83
2023/09/08 18:22:26;;;;;;;20.80;7.30;;;;;25.30;101107.00;;;;10116511;29;20285;-84
2023/09/08 18:27:29;;;;;;;21.55;8.50;;;;;25.20;101114.00;;;;10110229;29;20283;-82
2023/09/08 18:32:33;;;;;;;18.63;10.52;;;;;25.00;101116.00;;;;10100156;29;20422;-83
2023/09/08 18:37:34;;;;;;;20.02;9.18;;;;;24.90;101118.00;;;;10097458;29;20211;-84
2023/09/08 18:42:35;;;;;;;14.70;8.13;;;;;24.70;101122.00;;;;10105482;29;20218;-83
2023/09/08 18:47:37;;;;;;;18.77;8.55;;;;;24.60;101118.00;;;;10120161;29;20287;-82
2023/09/08 18:52:38;;;;;;;19.17;9.40;;;;;24.50;101128.00;;;;10106389;29;20291;-81
2023/09/08 18:57:39;;;;;;;16.83;7.55;;;;;24.30;101131.00;;;;10101630;29;20227;-82
2023/09/08 19:02:41;;;;;;;19.40;9.30;;;;;24.20;101136.00;;;;10100995;29;20227;-82
2023/09/08 19:07:44;;;;;;;19.15;9.63;;;;;24.10;101146.00;;;;10104064;29;20228;-82
2023/09/08 19:12:46;;;;;;;19.63;8.93;;;;;24.00;101141.00;;;;10120404;29;20204;-82
2023/09/08 19:17:47;;;;;;;11.98;8.95;;;;;24.00;101148.00;;;;10118826;29;20598;-81
2023/09/08 19:22:49;;;;;;;16.27;9.85;;;;;23.90;101145.00;;;;10110691;29;20586;-82
2023/09/08 19:27:50;;;;;;;17.13;9.50;;;;;23.80;101152.00;;;;10100469;29;20219;-82
2023/09/08 19:32:51;;;;;;;14.73;10.88;;;;;23.60;101149.00;;;;10091709;29;20267;-84
2023/09/08 19:37:53;;;;;;;21.83;16.13;;;;;23.50;101146.00;;;;10092342;29;20848;-82
2023/09/08 19:42:55;;;;;;;23.30;18.85;;;;;23.50;101145.00;;;;10104694;29;20900;-83
2023/09/08 19:47:56;;;;;;;23.88;17.35;;;;;23.50;101150.00;;;;10102531;29;20270;-83
2023/09/08 19:52:57;;;;;;;21.65;19.20;;;;;23.40;101141.00;;;;10105955;29;20713;-85
2023/09/08 19:57:59;;;;;;;20.85;17.70;;;;;23.30;101152.00;;;;10106616;29;20219;-81
2023/09/08 20:03:00;;;;;;;20.98;16.77;;;;;23.20;101145.00;;;;10104549;29;20208;-83
2023/09/08 20:08:01;;;;;;;17.95;16.08;;;;;23.00;101141.00;;;;10120826;29;20234;-82
2023/09/08 20:13:03;;;;;;;16.30;14.57;;;;;22.90;101139.00;;;;10076560;29;20219;-81
2023/09/08 20:18:04;;;;;;;19.13;15.80;;;;;22.80;101140.00;;;;10100539;29;20275;-81
2023/09/08 20:23:06;;;;;;;15.43;13.63;;;;;22.70;101145.00;;;;10103056;29;20980;-79
2023/09/08 20:28:07;;;;;;;20.08;15.70;;;;;22.60;101142.00;;;;10089151;29;20239;-80
2023/09/08 20:33:08;;;;;;;21.15;16.25;;;;;22.40;101150.00;;;;10088206;29;20915;-81
2023/09/08 20:38:12;;;;;;;23.10;16.92;;;;;22.30;101144.00;;;;10106315;29;20312;-79
2023/09/08 20:43:14;;;;;;;19.15;17.17;;;;;22.10;101145.00;;;;10099126;29;20215;-81
2023/09/08 20:48:16;;;;;;;20.30;18.17;;;;;22.00;101149.00;;;;10081459;29;20620;-84
2023/09/08 20:53:17;;;;;;;25.08;20.27;;;;;21.90;101141.00;;;;10091656;29;20220;-81
2023/09/08 20:58:19;;;;;;;22.17;19.77;;;;;21.80;101148.00;;;;10115323;29;20220;-80
2023/09/08 21:03:20;;;;;;;24.10;21.63;;;;;21.70;101148.00;;;;10100906;29;20255;-81
2023/09/08 21:08:21;;;;;;;25.05;22.42;;;;;21.60;101151.00;;;;10119623;29;20255;-82
2023/09/08 21:13:23;;;;;;;28.60;25.40;;;;;21.50;101155.00;;;;10095442;29;20215;-82
2023/09/08 21:18:24;;;;;;;28.23;24.20;;;;;21.40;101146.00;;;;10110205;29;20741;-81
2023/09/08 21:23:26;;;;;;;33.78;25.40;;;;;21.30;101148.00;;;;10086223;29;20310;-81
2023/09/08 21:28:28;;;;;;;31.15;27.65;;;;;21.30;101157.00;;;;10098040;29;20343;-81
2023/09/08 21:33:29;;;;;;;31.40;28.02;;;;;21.20;101140.00;;;;10097610;29;20210;-81
2023/09/08 21:38:31;;;;;;;33.55;29.17;;;;;21.10;101151.00;;;;10068592;29;20207;-80
2023/09/08 21:43:32;;;;;;;39.97;32.13;;;;;21.10;101139.00;;;;10102925;29;20219;-81
2023/09/08 21:48:34;;;;;;;36.13;32.33;;;;;21.00;101145.00;;;;10101214;29;20364;-81
2023/09/08 21:53:36;;;;;;;35.88;31.98;;;;;21.00;101140.00;;;;10102075;29;20215;-81
2023/09/08 21:58:38;;;;;;;36.40;29.83;;;;;20.90;101138.00;;;;10086985;29;20208;-81
2023/09/08 22:03:39;;;;;;;37.75;33.42;;;;;20.90;101135.00;;;;10105268;29;20219;-81
2023/09/08 22:08:46;;;;;;;38.88;32.33;;;;;20.80;101129.00;;;;10089622;29;20794;-81
2023/09/08 22:13:47;;;;;;;32.53;28.98;;;;;20.70;101128.00;;;;10125373;29;20212;-81
2023/09/08 22:18:49;;;;;;;36.47;29.75;;;;;20.60;101126.00;;;;10107316;29;20655;-78
2023/09/08 22:23:50;;;;;;;45.70;40.05;;;;;20.60;101131.00;;;;10112194;29;20303;-78
2023/09/08 22:28:52;;;;;;;44.78;37.75;;;;;20.50;101127.00;;;;10123247;29;20693;-78
2023/09/08 22:33:53;;;;;;;34.35;29.80;;;;;20.40;101121.00;;;;10106551;29;20215;-77
2023/09/08 22:38:55;;;;;;;34.85;29.27;;;;;20.40;101119.00;;;;10112422;29;20219;-81
2023/09/08 22:43:56;;;;;;;31.65;28.45;;;;;20.30;101117.00;;;;10105976;29;20224;-78
2023/09/08 22:48:57;;;;;;;32.20;28.75;;;;;20.20;101114.00;;;;10088675;29;20227;-80
2023/09/08 22:53:58;;;;;;;35.25;30.20;;;;;20.10;101117.00;;;;10106987;29;20344;-79
2023/09/08 22:58:59;;;;;;;41.17;35.42;;;;;20.10;101111.00;;;;10107431;29;20199;-79
2023/09/08 23:04:01;;;;;;;36.75;31.88;;;;;20.10;101116.00;;;;10097386;29;20641;-79
2023/09/08 23:09:03;;;;;;;34.92;30.63;;;;;20.00;101118.00;;;;10091822;29;20310;-78
2023/09/08 23:14:04;;;;;;;37.30;32.92;;;;;19.90;101120.00;;;;10107697;29;20243;-78
2023/09/08 23:19:06;;;;;;;41.88;35.83;;;;;19.90;101115.00;;;;10100361;29;20218;-78
2023/09/08 23:24:07;;;;;;;44.95;35.38;;;;;19.80;101115.00;;;;10099768;29;20303;-81
2023/09/08 23:29:08;;;;;;;42.78;37.65;;;;;19.70;101112.00;;;;10097052;29;20227;-86
2023/09/08 23:34:12;;;;;;;40.50;36.05;;;;;19.60;101123.00;;;;10111190;29;20776;-86
2023/09/08 23:39:14;;;;;;;50.75;43.08;;;;;19.60;101112.00;;;;10103740;29;20223;-86
2023/09/08 23:44:15;;;;;;;44.20;39.35;;;;;19.50;101120.00;;;;10094592;29;20298;-86
2023/09/08 23:49:16;;;;;;;45.13;38.13;;;;;19.50;101118.00;;;;10112364;29;20254;-83
2023/09/08 23:54:18;;;;;;;45.67;40.10;;;;;19.50;101121.00;;;;10114903;29;20215;-86
2023/09/08 23:59:19;;;;;;;46.17;40.55;;;;;19.40;101122.00;;;;10103448;29;20254;-84
